createdAt,value
2022-09-12T00:01:50.129Z,99.90
2022-09-12T00:04:16.990Z,99.90
2022-09-12T00:06:43.679Z,99.90
2022-09-12T00:09:13.104Z,99.90
2022-09-12T00:11:45.448Z,99.90
2022-09-12T00:14:15.799Z,99.90
2022-09-12T00:16:42.682Z,99.90
2022-09-12T00:19:10.479Z,99.90
2022-09-12T00:21:38.713Z,99.90
2022-09-12T00:24:06.520Z,99.90
2022-09-12T00:26:33.326Z,99.90
2022-09-12T00:29:00.052Z,99.90
2022-09-12T00:31:27.326Z,99.90
2022-09-12T00:33:59.037Z,99.90
2022-09-12T00:36:26.604Z,99.90
2022-09-12T00:38:54.707Z,99.90
2022-09-12T00:41:23.375Z,99.90
2022-09-12T00:43:59.148Z,99.90
2022-09-12T00:46:28.377Z,99.90
2022-09-12T00:49:01.373Z,99.90
2022-09-12T00:51:32.095Z,99.90
2022-09-12T00:54:02.898Z,99.90
2022-09-12T00:56:30.090Z,99.90
2022-09-12T00:59:08.338Z,99.90
2022-09-12T01:01:36.137Z,99.90
2022-09-12T01:04:03.389Z,99.90
2022-09-12T01:06:40.435Z,99.90
2022-09-12T01:09:08.539Z,99.90
2022-09-12T01:11:38.988Z,99.90
2022-09-12T01:14:07.409Z,99.90
2022-09-12T01:16:38.148Z,99.90
2022-09-12T01:19:29.461Z,99.90
2022-09-12T01:22:26.938Z,99.90
2022-09-12T01:25:24.879Z,99.90
2022-09-12T01:28:09.907Z,99.90
2022-09-12T01:31:16.395Z,99.90
2022-09-12T01:34:23.091Z,99.90
2022-09-12T01:37:20.814Z,99.90
2022-09-12T01:40:03.440Z,99.90
2022-09-12T01:42:49.729Z,99.90
2022-09-12T01:45:22.522Z,99.90
2022-09-12T01:48:11.121Z,99.90
2022-09-12T01:50:51.284Z,99.90
2022-09-12T01:53:28.370Z,99.90
2022-09-12T01:56:02.311Z,99.90
2022-09-12T01:58:38.041Z,99.90
2022-09-12T02:01:18.849Z,99.90
2022-09-12T02:03:54.044Z,99.90
2022-09-12T02:06:26.095Z,99.90
2022-09-12T02:08:56.079Z,99.90
2022-09-12T02:11:22.782Z,99.90
2022-09-12T02:14:11.215Z,99.90
2022-09-12T02:16:45.013Z,99.90
2022-09-12T02:19:20.912Z,99.90
2022-09-12T02:21:56.452Z,99.90
2022-09-12T02:24:30.025Z,99.90
2022-09-12T02:27:14.812Z,99.90
2022-09-12T02:29:44.571Z,99.90
2022-09-12T02:32:29.873Z,99.90
2022-09-12T02:35:07.282Z,99.90
2022-09-12T02:37:49.013Z,99.90
2022-09-12T02:40:16.315Z,99.90
2022-09-12T02:42:43.203Z,99.90
2022-09-12T02:45:10.782Z,99.90
2022-09-12T02:47:52.630Z,99.90
2022-09-12T02:50:20.000Z,99.90
2022-09-12T02:52:46.915Z,99.90
2022-09-12T02:55:13.803Z,99.90
2022-09-12T02:57:40.962Z,99.90
2022-09-12T03:00:09.020Z,99.90
2022-09-12T03:03:04.370Z,99.90
2022-09-12T03:05:47.244Z,99.90
2022-09-12T03:08:40.339Z,99.90
2022-09-12T03:11:46.471Z,99.90
2022-09-12T03:14:22.235Z,99.90
2022-09-12T03:17:14.387Z,99.90
2022-09-12T03:20:02.280Z,99.90
2022-09-12T03:22:51.046Z,99.90
2022-09-12T03:25:35.900Z,99.90
2022-09-12T03:28:07.485Z,99.90
2022-09-12T03:30:42.529Z,99.90
2022-09-12T03:33:18.777Z,99.90
2022-09-12T03:35:46.558Z,99.90
2022-09-12T03:38:13.621Z,99.90
2022-09-12T03:40:40.794Z,99.90
2022-09-12T03:43:08.854Z,99.90
2022-09-12T03:45:37.231Z,99.90
2022-09-12T03:48:05.966Z,99.90
2022-09-12T03:50:32.890Z,99.90
2022-09-12T03:53:00.116Z,99.90
2022-09-12T03:55:26.895Z,99.90
2022-09-12T03:57:56.477Z,99.90
2022-09-12T04:00:23.418Z,99.90
2022-09-12T04:02:53.354Z,99.90
2022-09-12T04:05:20.078Z,99.90
2022-09-12T04:07:46.864Z,99.90
2022-09-12T04:10:16.071Z,99.90
2022-09-12T04:12:43.852Z,99.90
2022-09-12T04:15:10.935Z,99.90
2022-09-12T04:17:37.651Z,99.90
2022-09-12T04:20:05.350Z,99.90
2022-09-12T04:22:33.243Z,99.90
2022-09-12T04:24:59.933Z,99.90
2022-09-12T04:27:26.718Z,99.90
2022-09-12T04:29:54.733Z,99.90
2022-09-12T04:32:22.266Z,99.90
2022-09-12T04:34:49.084Z,99.90
2022-09-12T04:37:16.836Z,99.90
2022-09-12T04:39:43.634Z,99.90
2022-09-12T04:42:10.427Z,99.90
2022-09-12T04:44:37.638Z,99.90
2022-09-12T04:47:04.399Z,99.90
2022-09-12T04:49:31.111Z,99.90
2022-09-12T04:51:57.819Z,99.90
2022-09-12T04:54:24.876Z,99.90
2022-09-12T04:56:52.564Z,99.90
2022-09-12T04:59:21.069Z,99.90
2022-09-12T05:01:48.807Z,99.90
2022-09-12T05:04:15.803Z,99.90
2022-09-12T05:06:42.851Z,99.90
2022-09-12T05:09:11.861Z,99.90
2022-09-12T05:12:03.885Z,99.90
2022-09-12T05:14:26.924Z,99.90
2022-09-12T05:16:53.754Z,99.90
2022-09-12T05:19:20.488Z,99.90
2022-09-12T05:21:47.130Z,99.90
2022-09-12T05:24:13.834Z,99.90
2022-09-12T05:26:40.478Z,99.90
2022-09-12T05:29:07.334Z,99.90
2022-09-12T05:31:34.932Z,99.90
2022-09-12T05:34:04.555Z,99.90
2022-09-12T05:36:31.865Z,99.90
2022-09-12T05:39:00.163Z,99.90
2022-09-12T05:41:32.822Z,99.90
2022-09-12T05:44:10.911Z,99.90
2022-09-12T05:46:39.357Z,99.90
2022-09-12T05:49:09.028Z,99.90
2022-09-12T05:51:38.788Z,99.90
2022-09-12T05:54:07.670Z,99.90
2022-09-12T05:56:41.265Z,99.90
2022-09-12T05:59:12.895Z,99.90
2022-09-12T06:01:40.209Z,99.90
2022-09-12T06:04:07.734Z,99.90
2022-09-12T06:06:41.431Z,99.90
2022-09-12T06:09:08.973Z,99.90
2022-09-12T06:11:37.354Z,99.90
2022-09-12T06:14:04.937Z,99.90
2022-09-12T06:16:33.765Z,99.90
2022-09-12T06:19:07.024Z,99.90
2022-09-12T06:21:37.774Z,99.90
2022-09-12T06:24:04.542Z,99.90
2022-09-12T06:26:31.381Z,99.90
2022-09-12T06:29:00.061Z,99.90
2022-09-12T06:31:30.466Z,99.90
2022-09-12T06:34:00.592Z,99.90
2022-09-12T06:36:31.147Z,99.90
2022-09-12T06:39:00.935Z,99.90
2022-09-12T06:41:29.339Z,99.90
2022-09-12T06:43:56.246Z,99.90
2022-09-12T06:46:23.714Z,99.90
2022-09-12T06:48:50.600Z,99.90
2022-09-12T06:51:18.666Z,99.90
2022-09-12T06:53:45.821Z,99.90
2022-09-12T06:56:15.084Z,99.90
2022-09-12T06:58:43.270Z,99.90
2022-09-12T07:01:10.090Z,99.90
2022-09-12T07:03:37.284Z,99.90
2022-09-12T07:06:15.624Z,99.90
2022-09-12T07:08:42.988Z,99.90
2022-09-12T07:11:21.193Z,99.90
2022-09-12T07:13:53.123Z,99.90
2022-09-12T07:16:20.335Z,99.90
2022-09-12T07:18:55.982Z,99.90
2022-09-12T07:21:22.886Z,99.90
2022-09-12T07:23:51.878Z,99.90
2022-09-12T07:26:18.628Z,99.90
2022-09-12T07:28:46.579Z,99.90
2022-09-12T07:31:16.097Z,99.90
2022-09-12T07:33:43.322Z,99.90
2022-09-12T07:36:16.249Z,99.90
2022-09-12T07:38:43.992Z,99.90
2022-09-12T07:41:19.211Z,99.90
2022-09-12T07:43:46.086Z,99.90
2022-09-12T07:46:14.241Z,99.90
2022-09-12T07:48:41.179Z,99.90
2022-09-12T07:51:10.744Z,99.90
2022-09-12T07:53:39.995Z,99.90
2022-09-12T07:56:08.323Z,99.90
2022-09-12T07:58:36.587Z,99.90
2022-09-12T08:01:08.757Z,99.90
2022-09-12T08:03:36.444Z,99.90
2022-09-12T08:06:09.376Z,99.90
2022-09-12T08:08:36.577Z,99.90
2022-09-12T08:11:12.936Z,99.90
2022-09-12T08:13:41.128Z,99.90
2022-09-12T08:16:12.126Z,99.90
2022-09-12T08:18:40.332Z,99.90
2022-09-12T08:21:11.861Z,99.90
2022-09-12T08:23:38.590Z,99.90
2022-09-12T08:26:06.576Z,99.90
2022-09-12T08:28:35.069Z,99.90
2022-09-12T08:31:11.543Z,99.90
2022-09-12T08:33:38.639Z,99.90
2022-09-12T08:36:06.156Z,99.90
2022-09-12T08:38:37.091Z,99.90
2022-09-12T08:41:30.245Z,99.90
2022-09-12T08:44:21.364Z,99.90
2022-09-12T08:47:07.027Z,99.90
2022-09-12T08:49:39.855Z,99.90
2022-09-12T08:52:13.132Z,99.90
2022-09-12T08:54:40.798Z,99.90
2022-09-12T08:57:11.668Z,99.90
2022-09-12T08:59:42.192Z,99.90
2022-09-12T09:02:31.030Z,99.90
2022-09-12T09:05:07.017Z,99.90
2022-09-12T09:07:42.265Z,99.90
2022-09-12T09:10:40.234Z,99.90
2022-09-12T09:13:55.950Z,99.30
2022-09-12T09:16:42.378Z,99.10
2022-09-12T09:19:50.868Z,98.80
2022-09-12T09:22:26.906Z,97.80
2022-09-12T09:24:59.661Z,97.90
2022-09-12T09:27:41.596Z,98.10
2022-09-12T09:30:17.875Z,97.30
2022-09-12T09:32:50.364Z,97.00
2022-09-12T09:35:38.251Z,95.70
2022-09-12T09:38:20.363Z,94.80
2022-09-12T09:41:16.273Z,94.10
2022-09-12T09:43:43.082Z,93.70
2022-09-12T09:46:11.806Z,92.70
2022-09-12T09:48:44.527Z,92.30
2022-09-12T09:51:14.173Z,92.60
2022-09-12T09:53:55.580Z,91.90
2022-09-12T09:56:44.816Z,91.30
2022-09-12T09:59:27.972Z,91.40
2022-09-12T10:02:00.565Z,91.10
2022-09-12T10:04:31.214Z,90.10
2022-09-12T10:07:03.411Z,90.10
2022-09-12T10:09:35.170Z,90.40
2022-09-12T10:12:28.605Z,89.40
2022-09-12T10:15:00.780Z,88.60
2022-09-12T10:17:43.895Z,88.00
2022-09-12T10:20:32.516Z,88.20
2022-09-12T10:23:01.604Z,86.40
2022-09-12T10:25:28.659Z,85.30
2022-09-12T10:27:59.079Z,84.80
2022-09-12T10:30:28.402Z,84.00
2022-09-12T10:33:06.858Z,82.80
2022-09-12T10:35:45.326Z,81.60
2022-09-12T10:38:25.818Z,81.30
2022-09-12T10:41:03.476Z,81.00
2022-09-12T10:43:34.604Z,81.40
2022-09-12T10:46:19.918Z,81.80
2022-09-12T10:48:48.937Z,81.00
2022-09-12T10:51:35.957Z,80.60
2022-09-12T10:54:05.438Z,80.40
2022-09-12T10:56:38.593Z,78.80
2022-09-12T10:59:40.200Z,78.90
2022-09-12T11:02:29.113Z,77.00
2022-09-12T11:05:28.653Z,77.60
2022-09-12T11:08:07.667Z,77.50
2022-09-12T11:10:41.452Z,76.60
2022-09-12T11:13:29.524Z,77.10
2022-09-12T11:16:14.423Z,76.30
2022-09-12T11:19:03.706Z,74.50
2022-09-12T11:21:56.156Z,73.00
2022-09-12T11:24:53.579Z,70.60
2022-09-12T11:27:50.665Z,71.20
2022-09-12T11:30:18.300Z,70.60
2022-09-12T11:33:12.711Z,69.90
2022-09-12T11:35:55.178Z,67.50
2022-09-12T11:38:41.163Z,67.10
2022-09-12T11:41:34.171Z,65.90
2022-09-12T11:44:26.261Z,64.10
2022-09-12T11:46:52.961Z,63.20
2022-09-12T11:49:36.003Z,61.70
2022-09-12T11:52:05.598Z,61.80
2022-09-12T11:54:54.007Z,63.70
2022-09-12T11:57:53.769Z,63.60
2022-09-12T12:00:47.035Z,65.50
2022-09-12T12:03:27.367Z,65.10
2022-09-12T12:06:33.719Z,64.70
2022-09-12T12:09:00.665Z,63.30
2022-09-12T12:11:35.406Z,63.30
2022-09-12T12:14:14.660Z,61.60
2022-09-12T12:16:42.223Z,61.90
2022-09-12T12:19:15.070Z,62.50
2022-09-12T12:21:43.834Z,63.40
2022-09-12T12:24:13.327Z,62.30
2022-09-12T12:26:40.158Z,62.60
2022-09-12T12:29:11.888Z,63.10
2022-09-12T12:32:03.548Z,62.30
2022-09-12T12:34:39.911Z,61.90
2022-09-12T12:37:18.832Z,62.10
2022-09-12T12:39:49.241Z,63.20
2022-09-12T12:42:38.804Z,64.40
2022-09-12T12:45:08.557Z,64.90
2022-09-12T12:47:38.659Z,64.40
2022-09-12T12:50:26.524Z,64.50
2022-09-12T12:53:06.880Z,63.40
2022-09-12T12:55:42.812Z,61.60
2022-09-12T12:58:38.675Z,61.30
2022-09-12T13:01:17.569Z,60.40
2022-09-12T13:04:15.110Z,60.70
2022-09-12T13:06:44.886Z,59.90
2022-09-12T13:09:14.530Z,60.70
2022-09-12T13:11:41.455Z,62.00
2022-09-12T13:14:42.992Z,61.50
2022-09-12T13:17:36.937Z,60.50
2022-09-12T13:20:34.263Z,60.40
2022-09-12T13:23:01.000Z,58.90
2022-09-12T13:25:35.992Z,58.10
2022-09-12T13:28:06.020Z,57.30
2022-09-12T13:30:39.173Z,56.50
2022-09-12T13:33:20.835Z,56.10
2022-09-12T13:35:50.245Z,55.50
2022-09-12T13:38:40.518Z,56.00
2022-09-12T13:41:31.770Z,56.10
2022-09-12T13:43:59.373Z,55.60
2022-09-12T13:46:32.477Z,55.10
2022-09-12T13:49:01.958Z,55.10
2022-09-12T13:51:32.015Z,56.00
2022-09-12T13:54:05.303Z,56.40
2022-09-12T13:56:32.116Z,56.10
2022-09-12T13:59:01.186Z,56.20
2022-09-12T14:01:42.374Z,55.50
2022-09-12T14:04:44.919Z,55.10
2022-09-12T14:07:20.203Z,54.20
2022-09-12T14:09:55.012Z,54.40
2022-09-12T14:12:43.864Z,54.40
2022-09-12T14:15:25.297Z,54.10
2022-09-12T14:17:54.792Z,54.50
2022-09-12T14:20:23.441Z,55.20
2022-09-12T14:22:52.237Z,54.20
2022-09-12T14:25:29.567Z,54.00
2022-09-12T14:27:59.021Z,54.10
2022-09-12T14:30:30.253Z,53.70
2022-09-12T14:33:05.911Z,52.90
2022-09-12T14:35:33.155Z,52.80
2022-09-12T14:38:08.629Z,53.40
2022-09-12T14:40:48.625Z,53.40
2022-09-12T14:43:24.311Z,53.90
2022-09-12T14:46:24.726Z,54.70
2022-09-12T14:48:54.879Z,55.90
2022-09-12T14:51:26.882Z,55.00
2022-09-12T14:53:53.949Z,54.10
2022-09-12T14:56:22.663Z,54.50
2022-09-12T14:58:50.416Z,54.10
2022-09-12T15:01:25.166Z,54.30
2022-09-12T15:03:54.590Z,55.30
2022-09-12T15:06:29.121Z,54.20
2022-09-12T15:08:59.364Z,54.10
2022-09-12T15:11:26.409Z,53.90
2022-09-12T15:13:53.337Z,53.50
2022-09-12T15:16:23.364Z,53.00
2022-09-12T15:18:50.101Z,53.50
2022-09-12T15:21:20.291Z,53.80
2022-09-12T15:23:48.080Z,53.50
2022-09-12T15:26:21.941Z,53.60
2022-09-12T15:28:49.345Z,53.40
2022-09-12T15:31:24.667Z,53.40
2022-09-12T15:33:51.468Z,53.80
2022-09-12T15:36:20.634Z,53.70
2022-09-12T15:38:48.483Z,53.60
2022-09-12T15:41:17.961Z,54.20
2022-09-12T15:43:45.522Z,54.30
2022-09-12T15:46:13.325Z,54.40
2022-09-12T15:48:40.248Z,54.20
2022-09-12T15:51:15.954Z,54.20
2022-09-12T15:53:43.813Z,53.50
2022-09-12T15:56:10.692Z,53.10
2022-09-12T15:58:49.763Z,53.00
2022-09-12T16:01:22.901Z,53.00
2022-09-12T16:03:49.652Z,52.80
2022-09-12T16:06:16.376Z,53.00
2022-09-12T16:08:43.143Z,53.30
2022-09-12T16:11:22.392Z,53.50
2022-09-12T16:13:49.629Z,53.80
2022-09-12T16:16:16.723Z,53.80
2022-09-12T16:18:43.520Z,54.50
2022-09-12T16:21:14.852Z,54.00
2022-09-12T16:23:46.258Z,55.20
2022-09-12T16:26:13.045Z,55.70
2022-09-12T16:28:40.276Z,55.90
2022-09-12T16:31:08.538Z,57.40
2022-09-12T16:33:36.824Z,57.10
2022-09-12T16:36:09.249Z,57.90
2022-09-12T16:38:43.914Z,58.70
2022-09-12T16:41:11.507Z,59.70
2022-09-12T16:43:39.122Z,61.30
2022-09-12T16:46:09.620Z,62.20
2022-09-12T16:48:37.919Z,62.60
2022-09-12T16:51:06.807Z,63.10
2022-09-12T16:53:35.391Z,64.50
2022-09-12T16:56:02.344Z,65.00
2022-09-12T16:58:33.121Z,66.50
2022-09-12T17:01:08.216Z,66.70
2022-09-12T17:03:35.990Z,66.10
2022-09-12T17:06:08.067Z,66.00
2022-09-12T17:08:37.981Z,67.80
2022-09-12T17:11:14.736Z,69.80
2022-09-12T17:14:03.268Z,70.40
2022-09-12T17:16:28.861Z,71.80
2022-09-12T17:18:55.626Z,74.40
2022-09-12T17:21:22.873Z,77.50
2022-09-12T17:23:50.045Z,79.40
2022-09-12T17:26:16.900Z,80.60
2022-09-12T17:28:44.429Z,81.00
2022-09-12T17:31:14.692Z,82.50
2022-09-12T17:33:42.306Z,84.10
2022-09-12T17:36:15.402Z,85.40
2022-09-12T17:38:44.934Z,87.00
2022-09-12T17:41:15.997Z,89.00
2022-09-12T17:43:43.892Z,90.80
2022-09-12T17:46:10.679Z,91.40
2022-09-12T17:48:37.902Z,92.00
2022-09-12T17:51:15.127Z,92.70
2022-09-12T17:53:42.448Z,93.40
2022-09-12T17:56:10.492Z,94.60
2022-09-12T17:58:37.951Z,95.60
2022-09-12T18:01:27.057Z,97.00
2022-09-12T18:03:58.701Z,98.00
2022-09-12T18:06:25.513Z,99.90
2022-09-12T18:08:52.409Z,99.90
2022-09-12T18:11:19.470Z,99.90
2022-09-12T18:13:46.183Z,99.90
2022-09-12T18:16:14.516Z,99.90
2022-09-12T18:18:41.370Z,99.90
2022-09-12T18:21:10.444Z,99.90
2022-09-12T18:23:37.690Z,99.90
2022-09-12T18:26:07.094Z,99.90
2022-09-12T18:28:39.640Z,99.90
2022-09-12T18:31:15.221Z,99.90
2022-09-12T18:33:42.660Z,99.90
2022-09-12T18:36:12.236Z,99.90
2022-09-12T18:38:39.984Z,99.90
2022-09-12T18:41:09.658Z,99.90
2022-09-12T18:43:36.749Z,99.90
2022-09-12T18:46:08.648Z,99.90
2022-09-12T18:48:36.017Z,99.90
2022-09-12T18:51:05.871Z,99.90
2022-09-12T18:53:39.466Z,99.90
2022-09-12T18:56:12.027Z,99.90
2022-09-12T18:58:40.812Z,99.90
2022-09-12T19:01:22.530Z,99.90
2022-09-12T19:03:49.632Z,99.90
2022-09-12T19:06:18.798Z,99.90
2022-09-12T19:08:46.414Z,99.90
2022-09-12T19:11:13.508Z,99.90
2022-09-12T19:13:42.920Z,99.90
2022-09-12T19:16:12.043Z,99.90
2022-09-12T19:18:40.191Z,99.90
2022-09-12T19:21:15.518Z,99.90
2022-09-12T19:23:43.175Z,99.90
2022-09-12T19:26:13.862Z,99.90
2022-09-12T19:28:41.024Z,99.90
2022-09-12T19:31:09.691Z,99.90
2022-09-12T19:33:37.005Z,99.90
2022-09-12T19:36:13.718Z,99.90
2022-09-12T19:38:48.979Z,99.90
2022-09-12T19:41:15.718Z,99.90
2022-09-12T19:43:42.384Z,99.90
2022-09-12T19:46:18.678Z,99.90
2022-09-12T19:48:45.949Z,99.90
2022-09-12T19:51:14.850Z,99.90
2022-09-12T19:53:42.768Z,99.90
2022-09-12T19:56:12.276Z,99.90
2022-09-12T19:58:44.736Z,99.90
2022-09-12T20:01:31.049Z,99.90
2022-09-12T20:03:58.846Z,99.90
2022-09-12T20:06:27.230Z,99.90
2022-09-12T20:08:55.021Z,99.90
2022-09-12T20:11:23.722Z,99.90
2022-09-12T20:13:51.142Z,99.90
2022-09-12T20:16:22.191Z,99.90
2022-09-12T20:19:00.537Z,99.90
2022-09-12T20:21:31.859Z,99.90
2022-09-12T20:24:12.006Z,99.90
2022-09-12T20:26:39.958Z,99.90
2022-09-12T20:29:07.262Z,99.90
2022-09-12T20:31:34.989Z,99.90
2022-09-12T20:34:02.328Z,99.90
2022-09-12T20:39:23.309Z,99.90
2022-09-12T20:41:50.546Z,99.90
2022-09-12T20:44:17.572Z,99.90
2022-09-12T20:46:44.699Z,99.90
2022-09-12T20:49:11.592Z,99.90
2022-09-12T20:51:38.648Z,99.90
2022-09-12T20:54:07.186Z,99.90
2022-09-12T20:56:36.488Z,99.90
2022-09-12T20:59:04.345Z,99.90
2022-09-12T21:01:31.930Z,99.90
2022-09-12T21:04:01.260Z,99.90
2022-09-12T21:06:28.290Z,99.90
2022-09-12T21:08:59.595Z,99.90
2022-09-12T21:11:28.144Z,99.90
2022-09-12T21:13:55.076Z,99.90
2022-09-12T21:16:23.644Z,99.90
2022-09-12T21:18:59.644Z,99.90
2022-09-12T21:21:27.106Z,99.90
2022-09-12T21:23:58.385Z,99.90
2022-09-12T21:26:25.393Z,99.90
2022-09-12T21:28:52.222Z,99.90
2022-09-12T21:31:19.043Z,99.90
2022-09-12T21:34:26.151Z,99.90
2022-09-12T21:41:19.021Z,99.90
2022-09-12T21:44:10.412Z,99.90
2022-09-12T21:47:18.382Z,99.90
2022-09-12T21:55:03.454Z,99.90
2022-09-12T21:57:51.777Z,99.90
2022-09-12T22:00:19.501Z,99.90
2022-09-12T22:02:50.486Z,99.90
2022-09-12T22:05:21.447Z,99.90
2022-09-12T22:07:51.570Z,99.90
2022-09-12T22:10:35.547Z,99.90
2022-09-12T22:14:00.779Z,99.90
2022-09-12T22:25:31.814Z,99.90
2022-09-12T22:40:05.171Z,99.90
2022-09-12T22:43:58.068Z,99.90
2022-09-12T22:46:45.217Z,99.90
2022-09-12T22:49:12.780Z,99.90
2022-09-12T22:51:40.135Z,99.90
2022-09-12T22:54:09.227Z,99.90
2022-09-12T22:56:36.107Z,99.90
2022-09-12T22:59:03.270Z,99.90
2022-09-12T23:01:31.782Z,99.90
2022-09-12T23:03:59.185Z,99.90
2022-09-12T23:06:26.218Z,99.90
2022-09-12T23:08:53.091Z,99.90
2022-09-12T23:11:21.471Z,99.90
2022-09-12T23:13:49.822Z,99.90
2022-09-12T23:16:23.108Z,99.90
2022-09-12T23:18:50.586Z,99.90
2022-09-12T23:21:19.759Z,99.90
2022-09-12T23:23:46.602Z,99.90
2022-09-12T23:26:17.123Z,99.90
2022-09-12T23:28:48.944Z,99.90
2022-09-12T23:31:17.151Z,99.90
2022-09-12T23:33:44.536Z,99.90
2022-09-12T23:36:14.058Z,99.90
2022-09-12T23:38:42.876Z,99.90
2022-09-12T23:41:11.089Z,99.90
2022-09-12T23:43:38.712Z,99.90
2022-09-12T23:46:06.586Z,99.90
2022-09-12T23:48:34.424Z,99.90
2022-09-12T23:51:01.447Z,99.90
2022-09-12T23:53:29.694Z,99.90
2022-09-12T23:55:56.593Z,99.90
2022-09-12T23:58:23.301Z,99.90
